SARE/RES METAR and TAF weather

Enter ICAO airport designator
Station Type Date Time Source
SARE METAR 2021/10/20 06:00 UTC NOAA

SARE 200600Z 11006KT CAVOK 17/08 Q1018


Station Type Date Time Source
SARE Decoded METAR 2021/10/20 06:00 UTC NOAA

Resistencia Aero., Argentina (SARE) 27-27S 059-03W 52M
Oct 20, 2021 - 02:00 AM EDT / 2021.10.20 0600 UTC
Wind: from the ESE (110 degrees) at 7 MPH (6 KT):0
Visibility: greater than 7 mile(s):0
Temperature: 62 F (17 C)
Dew Point: 46 F (8 C)
Relative Humidity: 55%
Pressure (altimeter): 30.06 in. Hg (1018 hPa)
ob: SARE 200600Z 11006KT CAVOK 17/08 Q1018
cycle: 6

Station Type Date Time Source
SARE TAF 2021/10/20 06:07 UTC NOAA

TAF SARE 200500Z 2006/2106 11005KT CAVOK TX31/2019Z TN12/2010Z

Example: see airport list